createdAt,value
2018-08-18T00:00:50.424Z,5.6
2018-08-18T00:02:49.509Z,5.6
2018-08-18T00:04:50.236Z,5.9
2018-08-18T00:06:49.523Z,5.7
2018-08-18T00:08:49.708Z,6.0
2018-08-18T00:10:49.716Z,6.0
2018-08-18T00:12:49.759Z,6.1
2018-08-18T00:14:49.792Z,6.8
2018-08-18T00:16:50.170Z,5.7
2018-08-18T00:18:50.304Z,6.3
2018-08-18T00:20:50.340Z,6.3
2018-08-18T00:22:49.461Z,6.0
2018-08-18T00:24:49.540Z,6.1
2018-08-18T00:26:49.871Z,6.3
2018-08-18T00:28:49.953Z,6.3
2018-08-18T00:30:50.022Z,6.6
2018-08-18T00:32:50.103Z,6.6
2018-08-18T00:34:49.683Z,6.8
2018-08-18T00:36:50.070Z,6.4
2018-08-18T00:38:50.224Z,6.4
2018-08-18T00:40:50.254Z,7.0
2018-08-18T00:42:50.344Z,6.8
2018-08-18T00:44:49.525Z,6.1
2018-08-18T00:46:49.841Z,6.1
2018-08-18T00:48:49.826Z,6.6
2018-08-18T00:50:49.826Z,6.6
2018-08-18T00:52:49.846Z,6.4
2018-08-18T00:54:49.937Z,6.1
2018-08-18T00:56:50.207Z,6.1
2018-08-18T00:58:50.185Z,6.5
2018-08-18T01:00:50.331Z,6.5
2018-08-18T01:02:49.491Z,6.2
2018-08-18T01:04:50.108Z,6.7
2018-08-18T01:06:50.381Z,6.3
2018-08-18T01:08:50.365Z,6.3
2018-08-18T01:10:50.480Z,6.5
2018-08-18T01:12:50.002Z,6.5
2018-08-18T01:14:50.476Z,6.5
2018-08-18T01:16:50.203Z,6.5
2018-08-18T01:18:50.232Z,6.2
2018-08-18T01:20:50.353Z,6.7
2018-08-18T01:22:49.532Z,6.8
2018-08-18T01:24:49.641Z,6.8
2018-08-18T01:26:49.923Z,6.4
2018-08-18T01:28:49.953Z,6.4
2018-08-18T01:30:50.025Z,6.9
2018-08-18T01:32:50.157Z,6.5
2018-08-18T01:34:49.903Z,6.5
2018-08-18T01:36:50.294Z,6.8
2018-08-18T01:38:50.330Z,6.8
2018-08-18T01:40:50.378Z,7.0
2018-08-18T01:42:50.365Z,6.7
2018-08-18T01:44:49.532Z,6.6
2018-08-18T01:46:49.811Z,6.6
2018-08-18T01:48:49.852Z,6.8
2018-08-18T01:50:49.974Z,6.8
2018-08-18T01:52:49.977Z,7.1
2018-08-18T01:54:50.178Z,7.1
2018-08-18T01:56:49.440Z,7.1
2018-08-18T01:58:49.500Z,6.9
2018-08-18T02:00:49.559Z,6.8
2018-08-18T02:02:49.660Z,7.3
2018-08-18T02:04:50.128Z,7.0
2018-08-18T02:06:49.455Z,7.0
2018-08-18T02:08:50.338Z,7.2
2018-08-18T02:10:50.374Z,6.9
2018-08-18T02:12:50.435Z,7.3
2018-08-18T02:14:49.522Z,7.0
2018-08-18T02:16:49.888Z,7.0
2018-08-18T02:18:49.898Z,7.3
2018-08-18T02:20:49.940Z,7.1
2018-08-18T02:22:50.072Z,7.1
2018-08-18T02:24:50.317Z,7.1
2018-08-18T02:26:49.790Z,6.8
2018-08-18T02:28:49.921Z,7.4
2018-08-18T02:30:49.973Z,6.3
2018-08-18T02:32:50.118Z,6.3
2018-08-18T02:34:49.720Z,6.9
2018-08-18T02:36:49.967Z,7.4
2018-08-18T02:38:50.021Z,7.3
2018-08-18T02:40:50.161Z,7.3
2018-08-18T02:42:50.240Z,7.0
2018-08-18T02:44:50.307Z,7.0
2018-08-18T02:46:49.671Z,7.2
2018-08-18T02:48:49.744Z,7.2
2018-08-18T02:50:49.889Z,7.0
2018-08-18T02:52:49.907Z,7.0
2018-08-18T02:54:50.186Z,7.2
2018-08-18T02:56:49.486Z,7.2
2018-08-18T02:58:49.523Z,7.5
2018-08-18T03:00:49.555Z,7.5
2018-08-18T03:02:49.602Z,7.5
2018-08-18T03:04:50.277Z,7.5
2018-08-18T03:06:50.292Z,7.2
2018-08-18T03:08:50.416Z,7.1
2018-08-18T03:10:49.508Z,7.2
2018-08-18T03:12:49.587Z,7.3
2018-08-18T03:14:49.690Z,7.3
2018-08-18T03:16:50.014Z,6.8
2018-08-18T03:18:50.158Z,7.5
2018-08-18T03:20:49.558Z,7.4
2018-08-18T03:22:49.630Z,6.9
2018-08-18T03:24:49.656Z,6.9
2018-08-18T03:26:50.099Z,6.9
2018-08-18T03:28:49.806Z,7.3
2018-08-18T03:30:49.856Z,6.7
2018-08-18T03:32:49.923Z,6.7
2018-08-18T03:34:49.451Z,6.7
2018-08-18T03:36:49.767Z,6.3
2018-08-18T03:38:49.877Z,6.8
2018-08-18T03:40:49.972Z,6.6
2018-08-18T03:42:50.198Z,6.6
2018-08-18T03:44:50.310Z,6.5
2018-08-18T03:46:49.707Z,6.5
2018-08-18T03:48:49.841Z,6.7
2018-08-18T03:50:49.909Z,6.4
2018-08-18T03:52:49.981Z,6.4
2018-08-18T03:54:50.122Z,6.7
2018-08-18T03:56:49.555Z,6.7
2018-08-18T03:58:49.684Z,6.5
2018-08-18T04:00:49.635Z,6.5
2018-08-18T04:02:49.641Z,6.6
2018-08-18T04:04:50.145Z,6.5
2018-08-18T04:06:49.466Z,6.9
2018-08-18T04:08:49.486Z,6.9
2018-08-18T04:10:49.467Z,6.4
2018-08-18T04:12:49.626Z,7.0
2018-08-18T04:14:49.855Z,7.0
2018-08-18T04:16:50.230Z,6.5
2018-08-18T04:18:50.347Z,7.1
2018-08-18T04:20:49.637Z,7.1
2018-08-18T04:22:49.664Z,7.0
2018-08-18T04:24:49.850Z,7.1
2018-08-18T04:26:49.584Z,7.6
2018-08-18T04:28:49.585Z,7.1
2018-08-18T04:30:49.687Z,7.1
2018-08-18T04:32:49.933Z,7.1
2018-08-18T04:34:49.556Z,7.2
2018-08-18T04:36:49.869Z,7.1
2018-08-18T04:38:50.042Z,7.1
2018-08-18T04:40:50.104Z,7.2
2018-08-18T04:42:50.256Z,7.3
2018-08-18T04:44:50.407Z,7.8
2018-08-18T04:46:49.923Z,7.6
2018-08-18T04:48:49.979Z,7.6
2018-08-18T04:50:50.004Z,7.5
2018-08-18T04:52:50.053Z,8.0
2018-08-18T04:54:50.217Z,7.1
2018-08-18T04:56:49.562Z,7.1
2018-08-18T04:58:49.933Z,7.5
2018-08-18T05:00:50.137Z,7.5
2018-08-18T05:02:50.220Z,7.5
2018-08-18T05:04:49.880Z,7.9
2018-08-18T05:06:50.164Z,7.4
2018-08-18T05:08:50.192Z,7.4
2018-08-18T05:10:49.709Z,7.6
2018-08-18T05:12:49.735Z,7.7
2018-08-18T05:14:49.813Z,8.0
2018-08-18T05:16:50.097Z,8.0
2018-08-18T05:18:50.150Z,7.0
2018-08-18T05:20:49.553Z,7.8
2018-08-18T05:22:49.823Z,8.0
2018-08-18T05:24:49.861Z,8.0
2018-08-18T05:26:50.137Z,8.0
2018-08-18T05:28:50.233Z,8.0
2018-08-18T05:30:49.566Z,7.9
2018-08-18T05:32:49.766Z,8.0
2018-08-18T05:34:50.324Z,7.4
2018-08-18T05:36:50.065Z,7.7
2018-08-18T05:38:50.145Z,7.7
2018-08-18T05:40:50.368Z,8.2
2018-08-18T05:42:49.546Z,8.0
2018-08-18T05:44:49.678Z,8.2
2018-08-18T05:46:49.889Z,8.2
2018-08-18T05:48:49.957Z,8.0
2018-08-18T05:50:50.277Z,8.4
2018-08-18T05:52:50.409Z,8.3
2018-08-18T05:54:50.393Z,8.2
2018-08-18T05:56:49.636Z,8.2
2018-08-18T05:58:49.770Z,8.0
2018-08-18T06:00:49.907Z,8.2
2018-08-18T06:02:49.998Z,8.0
2018-08-18T06:04:49.645Z,8.0
2018-08-18T06:06:49.919Z,8.5
2018-08-18T06:08:49.976Z,8.7
2018-08-18T06:10:50.174Z,8.8
2018-08-18T06:12:50.355Z,8.8
2018-08-18T06:14:50.386Z,8.6
2018-08-18T06:16:49.689Z,8.6
2018-08-18T06:18:49.770Z,9.1
2018-08-18T06:20:49.943Z,9.1
2018-08-18T06:22:49.969Z,8.8
2018-08-18T06:24:50.027Z,9.1
2018-08-18T06:26:50.261Z,9.1
2018-08-18T06:28:50.312Z,8.7
2018-08-18T06:30:49.472Z,9.5
2018-08-18T06:32:49.523Z,9.3
2018-08-18T06:34:50.113Z,9.3
2018-08-18T06:36:49.510Z,10.2
2018-08-18T06:38:49.727Z,9.7
2018-08-18T06:40:49.875Z,9.6
2018-08-18T06:42:49.918Z,9.6
2018-08-18T06:44:49.935Z,9.7
2018-08-18T06:46:50.317Z,9.0
2018-08-18T06:48:49.499Z,9.4
2018-08-18T06:50:49.772Z,9.8
2018-08-18T06:52:49.842Z,9.8
2018-08-18T06:54:50.141Z,9.8
2018-08-18T06:56:50.242Z,9.8
2018-08-18T06:58:49.509Z,10.1
2018-08-18T07:00:49.763Z,10.1
2018-08-18T07:02:49.820Z,9.9
2018-08-18T07:04:50.305Z,9.9
2018-08-18T07:06:49.564Z,10.8
2018-08-18T07:08:49.647Z,10.6
2018-08-18T07:10:49.821Z,10.4
2018-08-18T07:12:49.945Z,10.4
2018-08-18T07:14:49.989Z,10.0
2018-08-18T07:16:50.260Z,10.2
2018-08-18T07:18:50.376Z,11.5
2018-08-18T07:20:49.592Z,9.8
2018-08-18T07:22:49.733Z,9.8
2018-08-18T07:24:49.755Z,10.6
2018-08-18T07:26:50.017Z,10.7
2018-08-18T07:28:50.381Z,10.1
2018-08-18T07:30:49.858Z,11.3
2018-08-18T07:32:49.913Z,11.3
2018-08-18T07:34:50.278Z,10.1
2018-08-18T07:36:49.596Z,10.4
2018-08-18T07:38:49.843Z,10.1
2018-08-18T07:40:49.994Z,10.5
2018-08-18T07:42:50.112Z,10.5
2018-08-18T07:44:50.094Z,9.4
2018-08-18T07:46:50.433Z,9.7
2018-08-18T07:48:49.512Z,9.6
2018-08-18T07:50:49.795Z,9.6
2018-08-18T07:52:49.874Z,8.7
2018-08-18T07:54:49.933Z,8.7
2018-08-18T07:56:50.228Z,9.5
2018-08-18T07:58:50.351Z,9.5
2018-08-18T08:00:49.534Z,9.9
2018-08-18T08:02:49.528Z,9.9
2018-08-18T08:04:50.146Z,9.9
2018-08-18T08:06:50.405Z,9.1
2018-08-18T08:08:49.552Z,9.1
2018-08-18T08:10:50.029Z,10.0
2018-08-18T08:12:50.080Z,10.0
2018-08-18T08:14:50.356Z,9.0
2018-08-18T08:16:49.899Z,9.0
2018-08-18T08:18:50.125Z,10.0
2018-08-18T08:20:50.250Z,10.0
2018-08-18T08:22:50.313Z,8.5
2018-08-18T08:24:50.390Z,8.7
2018-08-18T08:26:49.716Z,8.7
2018-08-18T08:28:49.799Z,8.7
2018-08-18T08:30:49.869Z,9.2
2018-08-18T08:32:49.913Z,8.6
2018-08-18T08:34:49.457Z,8.4
2018-08-18T08:36:50.027Z,8.4
2018-08-18T08:38:49.808Z,9.5
2018-08-18T08:40:50.170Z,9.5
2018-08-18T08:42:50.219Z,8.8
2018-08-18T08:44:49.577Z,9.5
2018-08-18T08:46:50.178Z,9.5
2018-08-18T08:48:50.304Z,8.5
2018-08-18T08:50:50.434Z,8.5
2018-08-18T08:52:49.425Z,8.1
2018-08-18T08:54:49.681Z,7.4
2018-08-18T08:56:50.103Z,7.6
2018-08-18T08:58:50.280Z,8.0
2018-08-18T09:00:49.882Z,8.0
2018-08-18T09:02:49.981Z,7.2
2018-08-18T09:04:50.391Z,7.1
2018-08-18T09:06:49.563Z,7.2
2018-08-18T09:08:49.752Z,7.2
2018-08-18T09:10:49.906Z,7.1
2018-08-18T09:12:50.069Z,7.3
2018-08-18T09:14:50.089Z,6.8
2018-08-18T09:16:50.386Z,7.4
2018-08-18T09:18:49.553Z,7.4
2018-08-18T09:20:49.726Z,7.3
2018-08-18T09:22:49.939Z,6.9
2018-08-18T09:24:49.994Z,6.2
2018-08-18T09:26:50.290Z,6.2
2018-08-18T09:28:50.385Z,6.7
2018-08-18T09:30:49.489Z,6.4
2018-08-18T09:32:49.540Z,6.7
2018-08-18T09:34:50.211Z,6.4
2018-08-18T09:36:49.570Z,6.0
2018-08-18T09:38:49.858Z,6.0
2018-08-18T09:40:50.006Z,5.8
2018-08-18T09:42:50.302Z,5.7
2018-08-18T09:44:50.298Z,5.9
2018-08-18T09:46:49.686Z,6.0
2018-08-18T09:48:49.873Z,6.0
2018-08-18T09:50:49.946Z,5.2
2018-08-18T09:52:50.144Z,5.0
2018-08-18T09:54:50.186Z,4.8
2018-08-18T09:56:49.542Z,4.8
2018-08-18T09:58:49.774Z,5.1
2018-08-18T10:00:49.828Z,4.9
2018-08-18T10:02:50.016Z,5.1
2018-08-18T10:04:49.516Z,4.8
2018-08-18T10:06:49.994Z,4.8
2018-08-18T10:08:50.135Z,4.4
2018-08-18T10:10:50.128Z,4.6
2018-08-18T10:12:50.108Z,4.6
2018-08-18T10:14:50.229Z,4.6
2018-08-18T10:16:49.758Z,4.3
2018-08-18T10:18:49.874Z,4.0
2018-08-18T10:20:49.863Z,4.7
2018-08-18T10:22:49.929Z,6.3
2018-08-18T10:24:50.040Z,6.3
2018-08-18T10:26:50.303Z,4.2
2018-08-18T10:28:50.352Z,4.2
2018-08-18T10:30:50.290Z,4.3
2018-08-18T10:32:50.315Z,4.3
2018-08-18T10:34:49.954Z,4.2
2018-08-18T10:36:50.242Z,4.2
2018-08-18T10:38:50.333Z,4.2
2018-08-18T10:40:50.367Z,4.8
2018-08-18T10:42:50.407Z,4.8
2018-08-18T10:44:49.496Z,4.2
2018-08-18T10:46:49.803Z,4.2
2018-08-18T10:48:49.841Z,5.0
2018-08-18T10:50:49.848Z,4.2
2018-08-18T10:52:50.043Z,3.8
2018-08-18T10:54:50.021Z,3.8
2018-08-18T10:56:50.387Z,5.7
2018-08-18T10:58:49.573Z,3.9
2018-08-18T11:00:50.208Z,3.7
2018-08-18T11:02:50.246Z,3.6
2018-08-18T11:04:49.802Z,3.6
2018-08-18T11:06:50.247Z,3.4
2018-08-18T11:08:50.378Z,3.9
2018-08-18T11:10:49.502Z,3.6
2018-08-18T11:12:49.537Z,3.6
2018-08-18T11:14:49.602Z,3.6
2018-08-18T11:16:49.918Z,3.4
2018-08-18T11:18:50.038Z,3.6
2018-08-18T11:20:50.168Z,3.6
2018-08-18T11:22:50.215Z,7.7
2018-08-18T11:24:50.351Z,7.7
2018-08-18T11:26:49.716Z,7.7
2018-08-18T11:28:50.021Z,3.5
2018-08-18T11:30:49.503Z,3.4
2018-08-18T11:32:49.611Z,3.3
2018-08-18T11:34:50.270Z,3.3
2018-08-18T11:36:49.624Z,3.6
2018-08-18T11:38:49.716Z,3.6
2018-08-18T11:40:49.825Z,3.2
2018-08-18T11:42:49.864Z,3.2
2018-08-18T11:44:50.061Z,3.2
2018-08-18T11:46:50.419Z,3.3
2018-08-18T11:48:49.739Z,3.3
2018-08-18T11:50:49.774Z,3.4
2018-08-18T11:52:49.777Z,3.4
2018-08-18T11:54:49.912Z,3.3
2018-08-18T11:56:50.270Z,3.6
2018-08-18T11:58:50.382Z,3.3
2018-08-18T12:00:50.431Z,3.3
2018-08-18T12:02:49.489Z,3.3
2018-08-18T12:04:50.213Z,3.1
2018-08-18T12:06:49.662Z,5.2
2018-08-18T12:08:49.754Z,3.6
2018-08-18T12:10:50.023Z,3.0
2018-08-18T12:12:49.506Z,3.0
2018-08-18T12:14:49.658Z,4.2
2018-08-18T12:16:49.992Z,3.3
2018-08-18T12:18:50.038Z,3.3
2018-08-18T12:20:50.056Z,3.2
2018-08-18T12:22:50.054Z,3.2
2018-08-18T12:24:50.263Z,3.6
2018-08-18T12:26:49.467Z,3.1
2018-08-18T12:28:49.553Z,3.4
2018-08-18T12:30:49.532Z,3.1
2018-08-18T12:32:49.575Z,3.1
2018-08-18T12:34:50.253Z,3.3
2018-08-18T12:36:49.622Z,4.5
2018-08-18T12:38:50.276Z,3.1
2018-08-18T12:40:50.265Z,3.1
2018-08-18T12:42:50.290Z,3.1
2018-08-18T12:44:49.627Z,3.3
2018-08-18T12:46:49.990Z,3.3
2018-08-18T12:48:50.372Z,3.2
2018-08-18T12:50:50.313Z,3.2
2018-08-18T12:52:50.392Z,3.2
2018-08-18T12:54:49.544Z,2.9
2018-08-18T12:56:49.813Z,2.9
2018-08-18T12:58:50.197Z,3.2
2018-08-18T13:00:50.277Z,3.2
2018-08-18T13:02:50.402Z,3.2
2018-08-18T13:04:50.241Z,3.4
2018-08-18T13:06:49.624Z,3.4
2018-08-18T13:08:49.560Z,4.4
2018-08-18T13:10:49.626Z,4.4
2018-08-18T13:12:49.725Z,3.4
2018-08-18T13:14:49.829Z,3.6
2018-08-18T13:16:50.198Z,3.6
2018-08-18T13:18:50.271Z,3.8
2018-08-18T13:20:50.456Z,3.8
2018-08-18T13:22:49.989Z,3.4
2018-08-18T13:24:50.270Z,3.4
2018-08-18T13:26:49.470Z,4.3
2018-08-18T13:28:49.491Z,4.3
2018-08-18T13:30:49.693Z,4.1
2018-08-18T13:32:49.896Z,4.1
2018-08-18T13:34:49.455Z,3.5
2018-08-18T13:36:49.658Z,3.7
2018-08-18T13:38:49.725Z,3.7
2018-08-18T13:40:49.791Z,4.1
2018-08-18T13:42:49.851Z,4.1
2018-08-18T13:44:49.994Z,4.1
2018-08-18T13:46:50.386Z,4.0
2018-08-18T13:48:50.357Z,4.0
2018-08-18T13:50:49.486Z,3.8
2018-08-18T13:52:49.624Z,3.6
2018-08-18T13:54:49.507Z,3.6
2018-08-18T13:56:49.898Z,3.8
2018-08-18T13:58:49.952Z,3.8
2018-08-18T14:00:49.781Z,4.0
2018-08-18T14:02:49.965Z,3.8
2018-08-18T14:04:49.572Z,3.8
2018-08-18T14:06:49.853Z,3.4
2018-08-18T14:08:49.890Z,3.4
2018-08-18T14:10:50.040Z,3.7
2018-08-18T14:12:49.521Z,4.0
2018-08-18T14:14:49.587Z,4.8
2018-08-18T14:16:49.889Z,4.8
2018-08-18T14:18:50.016Z,4.0
2018-08-18T14:20:50.145Z,4.6
2018-08-18T14:22:50.222Z,4.0
2018-08-18T14:24:50.281Z,4.0
2018-08-18T14:26:49.629Z,4.0
2018-08-18T14:28:49.818Z,4.0
2018-08-18T14:30:49.886Z,4.1
2018-08-18T14:32:49.907Z,3.8
2018-08-18T14:34:50.419Z,3.8
2018-08-18T14:36:49.841Z,3.8
2018-08-18T14:38:50.054Z,5.0
2018-08-18T14:40:50.196Z,5.5
2018-08-18T14:42:50.420Z,5.5
2018-08-18T14:44:49.589Z,5.7
2018-08-18T14:46:49.662Z,5.7
2018-08-18T14:48:50.405Z,3.9
2018-08-18T14:50:49.451Z,4.6
2018-08-18T14:52:49.473Z,4.6
2018-08-18T14:54:49.548Z,4.0
2018-08-18T14:56:49.901Z,4.0
2018-08-18T14:58:49.931Z,4.0
2018-08-18T15:00:49.941Z,3.8
2018-08-18T15:02:49.982Z,3.8
2018-08-18T15:04:49.618Z,3.8
2018-08-18T15:06:49.993Z,3.9
2018-08-18T15:08:50.150Z,3.9
2018-08-18T15:10:49.532Z,3.9
2018-08-18T15:12:49.529Z,3.9
2018-08-18T15:14:49.633Z,4.0
2018-08-18T15:16:49.939Z,3.9
2018-08-18T15:18:50.002Z,4.2
2018-08-18T15:20:50.050Z,4.0
2018-08-18T15:22:50.116Z,4.0
2018-08-18T15:24:50.248Z,3.9
2018-08-18T15:26:49.628Z,3.8
2018-08-18T15:28:49.683Z,3.8
2018-08-18T15:30:49.774Z,3.8
2018-08-18T15:32:49.826Z,3.5
2018-08-18T15:34:50.411Z,3.5
2018-08-18T15:36:49.786Z,4.3
2018-08-18T15:38:49.717Z,4.3
2018-08-18T15:40:49.901Z,4.4
2018-08-18T15:42:49.920Z,4.4
2018-08-18T15:44:50.018Z,3.9
2018-08-18T15:46:50.347Z,4.1
2018-08-18T15:48:49.452Z,4.0
2018-08-18T15:50:49.486Z,3.9
2018-08-18T15:52:49.636Z,3.9
2018-08-18T15:54:49.708Z,3.8
2018-08-18T15:56:50.027Z,3.9
2018-08-18T15:58:50.035Z,3.9
2018-08-18T16:00:50.184Z,4.2
2018-08-18T16:02:49.504Z,4.0
2018-08-18T16:04:50.171Z,4.0
2018-08-18T16:06:49.508Z,4.0
2018-08-18T16:08:49.503Z,4.0
2018-08-18T16:10:49.627Z,4.1
2018-08-18T16:12:49.759Z,4.1
2018-08-18T16:14:49.886Z,4.9
2018-08-18T16:16:50.203Z,4.4
2018-08-18T16:18:49.445Z,4.0
2018-08-18T16:20:49.526Z,4.0
2018-08-18T16:22:49.652Z,3.9
2018-08-18T16:24:49.814Z,4.3
2018-08-18T16:26:50.109Z,5.6
2018-08-18T16:28:50.065Z,5.6
2018-08-18T16:30:50.176Z,4.3
2018-08-18T16:32:50.271Z,4.3
2018-08-18T16:34:49.904Z,4.3
2018-08-18T16:36:50.233Z,4.0
2018-08-18T16:38:50.220Z,4.0
2018-08-18T16:40:50.360Z,4.8
2018-08-18T16:42:50.448Z,4.8
2018-08-18T16:44:50.080Z,4.2
2018-08-18T16:46:50.371Z,4.2
2018-08-18T16:48:50.447Z,4.2
2018-08-18T16:50:49.611Z,4.3
2018-08-18T16:52:49.812Z,4.4
2018-08-18T16:54:49.846Z,4.4
2018-08-18T16:56:50.018Z,4.5
2018-08-18T16:58:50.050Z,4.5
2018-08-18T17:00:50.244Z,4.7
2018-08-18T17:02:50.398Z,4.5
2018-08-18T17:04:50.006Z,4.7
2018-08-18T17:06:49.478Z,5.1
2018-08-18T17:08:49.493Z,5.1
2018-08-18T17:10:49.588Z,4.7
2018-08-18T17:12:49.829Z,4.5
2018-08-18T17:14:49.850Z,4.8
2018-08-18T17:16:50.131Z,4.8
2018-08-18T17:18:50.133Z,4.7
2018-08-18T17:20:49.556Z,4.8
2018-08-18T17:22:49.661Z,4.8
2018-08-18T17:24:49.624Z,4.5
2018-08-18T17:26:49.797Z,4.5
2018-08-18T17:28:49.934Z,5.0
2018-08-18T17:30:50.072Z,4.9
2018-08-18T17:32:50.213Z,5.2
2018-08-18T17:34:49.576Z,4.6
2018-08-18T17:36:49.727Z,4.6
2018-08-18T17:38:49.817Z,5.8
2018-08-18T17:40:49.944Z,5.0
2018-08-18T17:42:49.996Z,5.5
2018-08-18T17:44:49.968Z,4.9
2018-08-18T17:46:50.324Z,4.9
2018-08-18T17:48:49.504Z,5.2
2018-08-18T17:50:49.587Z,5.5
2018-08-18T17:52:49.609Z,5.1
2018-08-18T17:54:49.582Z,5.1
2018-08-18T17:56:49.924Z,5.1
2018-08-18T17:58:50.060Z,5.3
2018-08-18T18:00:49.445Z,5.2
2018-08-18T18:02:49.454Z,5.4
2018-08-18T18:04:50.247Z,5.4
2018-08-18T18:06:49.673Z,5.6
2018-08-18T18:08:49.849Z,5.6
2018-08-18T18:10:49.915Z,5.5
2018-08-18T18:12:50.006Z,9.4
2018-08-18T18:14:50.096Z,9.4
2018-08-18T18:16:50.288Z,5.7
2018-08-18T18:18:49.511Z,5.5
2018-08-18T18:20:49.481Z,5.5
2018-08-18T18:22:50.161Z,5.2
2018-08-18T18:24:50.324Z,5.2
2018-08-18T18:26:49.657Z,5.1
2018-08-18T18:28:49.682Z,5.5
2018-08-18T18:30:49.783Z,5.1
2018-08-18T18:32:49.881Z,5.5
2018-08-18T18:34:49.513Z,5.5
2018-08-18T18:36:49.856Z,5.6
2018-08-18T18:38:49.913Z,6.4
2018-08-18T18:40:50.016Z,5.4
2018-08-18T18:42:50.209Z,5.7
2018-08-18T18:44:50.286Z,5.7
2018-08-18T18:46:49.527Z,5.7
2018-08-18T18:48:49.507Z,5.8
2018-08-18T18:50:49.635Z,6.2
2018-08-18T18:52:49.884Z,5.6
2018-08-18T18:54:49.956Z,5.6
2018-08-18T18:56:50.166Z,5.8
2018-08-18T18:58:49.484Z,6.1
2018-08-18T19:00:49.654Z,5.9
2018-08-18T19:02:49.823Z,5.9
2018-08-18T19:04:49.464Z,5.5
2018-08-18T19:06:49.773Z,6.0
2018-08-18T19:08:49.812Z,5.9
2018-08-18T19:10:50.019Z,6.4
2018-08-18T19:12:50.163Z,5.7
2018-08-18T19:14:50.182Z,5.7
2018-08-18T19:16:49.479Z,6.2
2018-08-18T19:18:49.795Z,6.0
2018-08-18T19:20:49.965Z,7.8
2018-08-18T19:22:50.014Z,6.9
2018-08-18T19:24:50.059Z,6.9
2018-08-18T19:26:50.443Z,6.1
2018-08-18T19:28:49.538Z,10.5
2018-08-18T19:30:49.758Z,7.7
2018-08-18T19:32:49.872Z,8.0
2018-08-18T19:34:50.397Z,8.0
2018-08-18T19:36:49.825Z,8.2
2018-08-18T19:38:49.967Z,7.0
2018-08-18T19:40:50.186Z,7.1
2018-08-18T19:42:49.973Z,6.5
2018-08-18T19:44:49.970Z,6.5
2018-08-18T19:46:50.325Z,10.3
2018-08-18T19:48:49.523Z,6.5
2018-08-18T19:50:49.578Z,7.2
2018-08-18T19:52:49.508Z,7.2
2018-08-18T19:54:49.561Z,7.0
2018-08-18T19:56:50.038Z,6.4
2018-08-18T19:58:50.199Z,6.0
2018-08-18T20:00:50.255Z,6.0
2018-08-18T20:02:50.287Z,6.7
2018-08-18T20:04:50.003Z,6.6
2018-08-18T20:06:49.979Z,6.9
2018-08-18T20:08:50.048Z,6.9
2018-08-18T20:10:50.055Z,8.1
2018-08-18T20:12:50.069Z,7.0
2018-08-18T20:14:50.199Z,7.8
2018-08-18T20:16:49.521Z,7.0
2018-08-18T20:18:49.615Z,7.0
2018-08-18T20:20:49.657Z,7.6
2018-08-18T20:22:49.874Z,7.6
2018-08-18T20:24:50.092Z,8.8
2018-08-18T20:26:49.985Z,7.9
2018-08-18T20:28:49.981Z,7.5
2018-08-18T20:30:50.061Z,7.5
2018-08-18T20:32:50.225Z,7.7
2018-08-18T20:34:49.897Z,8.7
2018-08-18T20:36:50.228Z,7.5
2018-08-18T20:38:50.182Z,8.0
2018-08-18T20:40:50.230Z,8.0
2018-08-18T20:42:50.391Z,7.7
2018-08-18T20:44:50.022Z,7.9
2018-08-18T20:46:50.267Z,9.1
2018-08-18T20:48:50.288Z,9.1
2018-08-18T20:50:49.836Z,8.6
2018-08-18T20:52:50.073Z,8.6
2018-08-18T20:54:50.202Z,7.9
2018-08-18T20:56:49.676Z,7.9
2018-08-18T20:58:49.777Z,9.2
2018-08-18T21:00:49.961Z,7.6
2018-08-18T21:02:50.020Z,7.6
2018-08-18T21:04:49.621Z,7.6
2018-08-18T21:06:50.332Z,7.5
2018-08-18T21:08:49.703Z,7.5
2018-08-18T21:10:50.195Z,7.3
2018-08-18T21:12:49.849Z,7.3
2018-08-18T21:14:50.181Z,10.6
2018-08-18T21:16:49.520Z,10.6
2018-08-18T21:18:49.668Z,8.5
2018-08-18T21:20:49.956Z,7.4
2018-08-18T21:22:49.807Z,7.7
2018-08-18T21:24:49.862Z,7.8
2018-08-18T21:26:50.134Z,7.8
2018-08-18T21:28:50.224Z,7.4
2018-08-18T21:30:50.417Z,8.2
2018-08-18T21:32:49.554Z,7.4
2018-08-18T21:34:50.260Z,8.1
2018-08-18T21:36:49.750Z,8.1
2018-08-18T21:38:49.894Z,7.2
2018-08-18T21:40:50.072Z,7.2
2018-08-18T21:42:50.152Z,7.1
2018-08-18T21:44:50.234Z,7.2
2018-08-18T21:46:49.719Z,7.2
2018-08-18T21:48:49.880Z,7.3
2018-08-18T21:50:49.533Z,7.6
2018-08-18T21:52:49.682Z,7.6
2018-08-18T21:54:49.788Z,7.8
2018-08-18T21:56:50.255Z,7.8
2018-08-18T21:58:49.559Z,7.0
2018-08-18T22:00:49.687Z,7.6
2018-08-18T22:02:49.613Z,7.0
2018-08-18T22:04:50.196Z,7.1
2018-08-18T22:06:50.437Z,7.1
2018-08-18T22:08:49.544Z,7.5
2018-08-18T22:10:49.801Z,7.1
2018-08-18T22:12:50.037Z,7.6
2018-08-18T22:14:50.111Z,7.6
2018-08-18T22:16:49.457Z,7.1
2018-08-18T22:18:49.570Z,7.5
2018-08-18T22:20:49.721Z,7.3
2018-08-18T22:22:49.884Z,8.5
2018-08-18T22:24:49.485Z,8.5
2018-08-18T22:26:49.791Z,7.2
2018-08-18T22:28:49.898Z,7.2
2018-08-18T22:30:49.997Z,7.3
2018-08-18T22:32:50.115Z,7.6
2018-08-18T22:34:49.773Z,7.2
2018-08-18T22:36:50.132Z,7.2
2018-08-18T22:38:50.188Z,7.7
2018-08-18T22:40:50.329Z,7.6
2018-08-18T22:42:50.443Z,8.0
2018-08-18T22:44:49.639Z,8.0
2018-08-18T22:46:50.028Z,8.0
2018-08-18T22:48:50.203Z,8.1
2018-08-18T22:50:49.727Z,7.7
2018-08-18T22:52:49.805Z,7.6
2018-08-18T22:54:49.894Z,7.6
2018-08-18T22:56:50.285Z,7.6
2018-08-18T22:58:50.401Z,8.8
2018-08-18T23:00:49.465Z,7.9
2018-08-18T23:02:49.496Z,7.9
2018-08-18T23:04:50.165Z,7.4
2018-08-18T23:06:49.548Z,7.8
2018-08-18T23:08:49.779Z,7.9
2018-08-18T23:10:49.829Z,7.7
2018-08-18T23:12:49.908Z,8.2
2018-08-18T23:14:50.076Z,8.2
2018-08-18T23:16:49.689Z,8.2
2018-08-18T23:18:49.934Z,8.4
2018-08-18T23:20:49.968Z,8.2
2018-08-18T23:22:50.092Z,8.2
2018-08-18T23:24:49.691Z,7.8
2018-08-18T23:26:50.138Z,8.1
2018-08-18T23:28:50.317Z,8.0
2018-08-18T23:30:50.389Z,8.3
2018-08-18T23:32:50.421Z,8.3
2018-08-18T23:34:50.043Z,7.3
2018-08-18T23:36:50.466Z,8.1
2018-08-18T23:38:49.828Z,8.0
2018-08-18T23:40:49.918Z,8.0
2018-08-18T23:42:50.065Z,8.9
2018-08-18T23:44:50.168Z,7.5
2018-08-18T23:46:49.632Z,7.8
2018-08-18T23:48:49.930Z,7.7
2018-08-18T23:50:50.097Z,7.5
2018-08-18T23:52:50.247Z,7.5
2018-08-18T23:54:50.276Z,10.0
2018-08-18T23:56:49.577Z,7.7
2018-08-18T23:58:49.679Z,8.2
